Oceanside, California
Current Conditions -  °F | °C
As of 12:52 AM on Monday 20 Oct 2014 (Local Time) from KOKB Reporting Station
Overcast Overcast  
Wind Chill: 63°   Ceiling: 1700
Heat Index: 63°   Visibility: 10mi
Dew Point: 58°   Wind: 0mph
Humidity: 84%   Direction: NA
Pressure: 29.88"   Gusts: NA
Location:  33.2°N, 117.38°W
Report Text: KOKB 200752Z AUTO 00000KT 10SM OVC017 17/14 A2988 RMK AO2 SLP117 T01720144 402440122
Loading
Personal Weather Stations






























Interactive Weather Map
Tropical Storm Tracking
New forecast layout! Learn more

10-Day Weather Forecast

Advertisements
Track Severe Weather on mobile